Time;durP1;ratioP1;P1;durP2;ratioP2;P2;SDS_P1;SDS_P2;PMS_P1;PMS_P2;Temp;Humidity;BMP_temperature;BMP_pressure;BME280_temperature;BME280_humidity;BME280_pressure;Samples;Min_cycle;Max_cycle;Signal;HPM_P1;HPM_P2
2023/03/30 00:00:45;;;;;;;;;10.00;8.75;;;;;23.01;35.38;100333.81;5040285;28;47302;-74
2023/03/30 00:03:11;;;;;;;;;8.00;8.00;;;;;23.00;35.51;100328.59;5053405;28;45396;-74
2023/03/30 00:05:37;;;;;;;;;9.00;9.00;;;;;22.99;35.66;100327.78;5035095;28;45241;-74
2023/03/30 00:08:03;;;;;;;;;11.00;9.25;;;;;22.98;35.92;100318.06;5033827;28;45538;-74
2023/03/30 00:10:28;;;;;;;;;7.25;6.75;;;;;22.97;35.56;100300.38;5026320;28;46069;-74
2023/03/30 00:12:54;;;;;;;;;7.00;6.75;;;;;23.00;35.72;100280.56;5016301;28;45381;-74
2023/03/30 00:15:21;;;;;;;;;6.75;6.50;;;;;22.97;35.46;100272.84;5034036;28;45491;-75
2023/03/30 00:17:47;;;;;;;;;8.75;6.25;;;;;22.96;35.47;100260.47;5038485;28;45328;-74
2023/03/30 00:20:13;;;;;;;;;8.50;6.00;;;;;22.98;35.51;100272.69;5036677;28;46056;-74
2023/03/30 00:22:42;;;;;;;;;9.25;7.50;;;;;22.97;35.37;100267.53;5040222;28;45792;-74
2023/03/30 00:25:10;;;;;;;;;9.50;7.25;;;;;22.94;35.52;100255.28;5027387;28;45576;-74
2023/03/30 00:27:36;;;;;;;;;8.50;7.00;;;;;22.95;35.87;100267.66;5028986;28;45563;-74
2023/03/30 00:30:07;;;;;;;;;5.75;5.00;;;;;22.94;35.93;100274.78;5034004;28;46218;-74
2023/03/30 00:32:33;;;;;;;;;5.75;5.00;;;;;22.92;35.61;100255.41;5037441;28;45253;-75
2023/03/30 00:34:59;;;;;;;;;5.25;5.00;;;;;22.94;35.98;100241.94;5025614;28;45450;-75
2023/03/30 00:37:24;;;;;;;;;7.75;6.50;;;;;22.93;35.41;100253.59;5035847;28;45545;-75
2023/03/30 00:39:51;;;;;;;;;7.25;6.00;;;;;22.91;35.54;100247.53;5047094;28;47438;-75
2023/03/30 00:42:17;;;;;;;;;5.50;4.50;;;;;22.90;35.42;100244.03;5033065;28;45421;-75
2023/03/30 00:45:01;;;;;;;;;7.25;5.50;;;;;22.93;35.73;100258.94;5013056;28;45569;-75
2023/03/30 00:47:27;;;;;;;;;6.25;6.25;;;;;22.86;35.55;100250.63;5043073;28;45550;-75
2023/03/30 00:49:53;;;;;;;;;5.75;5.25;;;;;22.87;35.40;100246.09;5011213;28;73111;-75
2023/03/30 00:52:23;;;;;;;;;7.75;6.00;;;;;22.87;35.73;100244.28;5022699;28;45614;-75
2023/03/30 00:54:52;;;;;;;;;5.00;4.75;;;;;22.89;35.90;100252.16;5038913;28;45270;-75
2023/03/30 00:57:20;;;;;;;;;3.25;3.25;;;;;22.89;35.64;100268.16;5030765;28;45684;-75
2023/03/30 00:59:46;;;;;;;;;8.00;5.00;;;;;22.87;35.72;100270.97;5046499;28;46396;-75
2023/03/30 01:02:11;;;;;;;;;6.50;5.00;;;;;22.88;35.73;100261.16;5024754;28;52749;-75
2023/03/30 01:04:37;;;;;;;;;7.25;5.00;;;;;22.86;35.79;100249.75;5024835;28;45231;-75
2023/03/30 01:07:03;;;;;;;;;7.75;5.00;;;;;22.87;36.00;100241.59;5028281;28;45259;-75
2023/03/30 01:09:29;;;;;;;;;4.50;4.25;;;;;22.86;35.92;100236.41;5017391;28;47136;-75
2023/03/30 01:11:54;;;;;;;;;6.75;4.75;;;;;22.86;36.12;100245.28;5041141;28;70961;-74
2023/03/30 01:14:19;;;;;;;;;4.50;4.50;;;;;22.86;35.86;100241.75;5029125;28;45547;-74
2023/03/30 01:17:02;;;;;;;;;5.00;3.75;;;;;22.83;36.08;100245.53;5011881;28;45717;-75
2023/03/30 01:19:57;;;;;;;;;5.00;4.00;;;;;22.86;35.67;100253.28;5040575;28;45478;-74
2023/03/30 01:22:57;;;;;;;;;4.75;4.75;;;;;22.85;36.24;100258.75;5020526;28;45702;-74
2023/03/30 01:25:50;;;;;;;;;5.00;3.75;;;;;22.81;35.95;100239.50;5025333;28;45517;-74
2023/03/30 01:28:24;;;;;;;;;6.00;6.00;;;;;22.82;36.30;100249.16;5051475;28;45483;-75
2023/03/30 01:31:26;;;;;;;;;3.25;3.25;;;;;22.81;35.88;100247.50;5033431;28;45589;-75
2023/03/30 01:34:16;;;;;;;;;3.00;3.00;;;;;22.81;35.90;100258.16;5009777;28;45734;-75
2023/03/30 01:36:58;;;;;;;;;8.75;5.00;;;;;22.81;35.87;100255.50;5031756;28;45389;-75
2023/03/30 01:39:40;;;;;;;;;4.00;1.75;;;;;22.80;36.10;100269.78;5035032;28;45717;-75
2023/03/30 01:42:21;;;;;;;;;3.50;3.50;;;;;22.79;35.85;100275.25;5011963;28;48568;-75
2023/03/30 01:45:12;;;;;;;;;2.75;2.50;;;;;22.78;36.12;100293.09;5025758;28;45982;-75
2023/03/30 01:48:24;;;;;;;;;4.00;4.00;;;;;22.78;36.13;100286.94;5051912;28;45545;-75
2023/03/30 01:50:53;;;;;;;;;5.50;4.00;;;;;22.78;36.30;100278.94;4946834;28;45383;-75
2023/03/30 01:53:50;;;;;;;;;4.00;3.00;;;;;22.77;36.29;100272.75;4947901;28;47226;-75
2023/03/30 01:56:26;;;;;;;;;4.25;4.00;;;;;22.76;35.82;100271.06;5008343;28;45651;-75
2023/03/30 01:58:56;;;;;;;;;4.00;4.00;;;;;22.76;36.10;100273.72;5023247;28;45353;-75
2023/03/30 02:01:22;;;;;;;;;3.50;3.50;;;;;22.75;36.46;100275.56;5025676;28;46189;-75
2023/03/30 02:03:52;;;;;;;;;3.75;2.50;;;;;22.75;36.29;100264.00;5035578;28;71360;-75
2023/03/30 02:06:23;;;;;;;;;3.50;3.50;;;;;22.72;36.69;100257.13;5031103;28;45763;-75
2023/03/30 02:08:49;;;;;;;;;4.25;3.25;;;;;22.70;36.20;100234.22;5039189;28;45338;-75
2023/03/30 02:11:14;;;;;;;;;3.75;3.75;;;;;22.70;36.20;100229.75;5038279;28;53279;-75
2023/03/30 02:13:41;;;;;;;;;2.75;2.75;;;;;22.70;36.08;100255.56;5029478;28;47336;-75
2023/03/30 02:16:15;;;;;;;;;4.00;4.00;;;;;22.74;36.17;100286.34;5026256;28;45677;-75
2023/03/30 02:18:40;;;;;;;;;3.00;2.75;;;;;22.72;36.24;100278.47;5035153;28;45290;-75
2023/03/30 02:21:07;;;;;;;;;3.00;2.00;;;;;22.70;36.46;100295.56;5035989;28;69446;-76
2023/03/30 02:23:35;;;;;;;;;2.75;2.00;;;;;22.70;36.28;100292.91;5033242;28;45432;-75
2023/03/30 02:26:01;;;;;;;;;3.25;3.25;;;;;22.70;36.56;100300.91;5050173;28;45347;-76
2023/03/30 02:28:27;;;;;;;;;3.00;3.00;;;;;22.69;36.34;100302.72;5037564;28;45303;-76
2023/03/30 02:30:52;;;;;;;;;2.50;2.25;;;;;22.66;36.46;100294.97;5020115;28;46493;-75
2023/03/30 02:33:57;;;;;;;;;4.75;2.00;;;;;22.69;36.06;100280.56;5055931;28;45559;-75
2023/03/30 02:36:51;;;;;;;;;3.00;3.00;;;;;22.68;36.02;100287.72;5030878;28;45343;-76
2023/03/30 02:39:26;;;;;;;;;3.00;3.00;;;;;22.67;36.40;100296.69;5049203;28;45277;-76
2023/03/30 02:42:27;;;;;;;;;3.00;2.75;;;;;22.67;35.99;100295.84;5029296;28;45435;-76
2023/03/30 02:45:10;;;;;;;;;4.00;3.00;;;;;22.65;36.54;100298.66;5026589;28;46585;-75
2023/03/30 02:48:13;;;;;;;;;2.00;2.00;;;;;22.65;36.19;100337.81;5054690;28;45392;-75
2023/03/30 02:50:45;;;;;;;;;2.50;2.50;;;;;22.65;36.38;100346.66;5040958;28;45222;-75
2023/03/30 02:53:13;;;;;;;;;2.00;2.00;;;;;22.63;36.07;100343.28;5023862;28;47045;-76
2023/03/30 02:55:59;;;;;;;;;2.75;2.00;;;;;22.64;36.20;100344.94;5044644;28;45406;-75
2023/03/30 02:58:31;;;;;;;;;2.00;2.00;;;;;22.64;36.73;100323.63;5034114;28;45990;-75
2023/03/30 03:01:03;;;;;;;;;4.50;3.00;;;;;22.64;36.24;100334.28;5032834;28;45495;-75
2023/03/30 03:03:42;;;;;;;;;2.00;2.00;;;;;22.64;36.50;100336.13;5027096;28;45385;-75
2023/03/30 03:06:08;;;;;;;;;1.50;1.50;;;;;22.62;36.58;100338.91;5035404;28;46097;-76
2023/03/30 03:08:38;;;;;;;;;2.00;2.00;;;;;22.62;36.50;100348.75;5036787;28;50407;-75
2023/03/30 03:11:04;;;;;;;;;2.00;1.75;;;;;22.62;36.24;100338.06;5037315;28;46400;-76
2023/03/30 03:13:29;;;;;;;;;3.00;2.00;;;;;22.61;36.32;100326.56;5032764;28;45643;-76
2023/03/30 03:15:55;;;;;;;;;3.00;2.00;;;;;22.61;36.32;100323.03;5030514;28;46041;-76
2023/03/30 03:18:22;;;;;;;;;3.50;2.25;;;;;22.61;36.39;100326.56;5024043;28;45463;-76
2023/03/30 03:20:47;;;;;;;;;1.50;1.50;;;;;22.61;36.09;100325.69;5024353;28;45362;-75
2023/03/30 03:23:12;;;;;;;;;2.00;2.00;;;;;22.60;36.26;100335.53;5025189;28;66186;-75
2023/03/30 03:25:38;;;;;;;;;4.00;2.00;;;;;22.61;36.41;100323.03;5044491;28;59023;-75
2023/03/30 03:28:03;;;;;;;;;3.00;2.00;;;;;22.60;36.54;100326.69;5048512;28;66229;-75
2023/03/30 03:30:28;;;;;;;;;1.00;0.75;;;;;22.56;36.39;100329.59;5054506;28;45415;-75
2023/03/30 03:32:54;;;;;;;;;1.75;1.25;;;;;22.58;36.41;100324.16;5020963;28;64118;-75
2023/03/30 03:35:20;;;;;;;;;0.75;0.75;;;;;22.58;36.39;100332.16;5044366;28;46505;-75
2023/03/30 03:37:45;;;;;;;;;3.00;1.75;;;;;22.56;36.62;100328.78;5032696;28;45837;-75
2023/03/30 03:40:11;;;;;;;;;1.75;1.75;;;;;22.56;36.34;100331.44;5043252;28;45534;-75
2023/03/30 03:42:36;;;;;;;;;1.00;1.00;;;;;22.55;36.55;100330.56;5032850;28;45599;-75
2023/03/30 03:45:02;;;;;;;;;1.00;1.00;;;;;22.56;36.33;100323.44;5029793;28;45614;-75
2023/03/30 03:47:28;;;;;;;;;2.00;1.75;;;;;22.57;36.31;100319.78;5034405;28;45532;-74
2023/03/30 03:49:53;;;;;;;;;1.25;1.00;;;;;22.56;36.79;100332.28;5043507;28;53628;-75
2023/03/30 03:52:19;;;;;;;;;2.50;1.75;;;;;22.54;36.63;100339.56;5037990;28;45884;-75
2023/03/30 03:54:44;;;;;;;;;3.00;1.00;;;;;22.54;36.82;100333.34;5046859;28;45973;-75
2023/03/30 03:57:09;;;;;;;;;1.00;1.00;;;;;22.53;36.67;100329.84;5045015;28;67357;-75
2023/03/30 03:59:35;;;;;;;;;1.00;1.00;;;;;22.53;36.18;100321.00;5034688;28;45249;-74
2023/03/30 04:02:01;;;;;;;;;1.25;1.25;;;;;22.55;36.25;100340.41;5054281;28;45414;-73
2023/03/30 04:04:26;;;;;;;;;1.00;1.00;;;;;22.52;36.30;100337.97;5043855;28;69116;-74
2023/03/30 04:06:51;;;;;;;;;3.50;1.50;;;;;22.54;36.88;100344.03;5016737;28;53964;-74
2023/03/30 04:09:18;;;;;;;;;1.00;1.00;;;;;22.53;36.43;100345.84;5050223;28;45404;-74
2023/03/30 04:11:43;;;;;;;;;2.00;2.00;;;;;22.52;36.30;100344.19;5026972;28;47108;-74
2023/03/30 04:14:08;;;;;;;;;3.75;1.00;;;;;22.53;36.77;100351.19;5031848;28;47334;-75
2023/03/30 04:16:34;;;;;;;;;1.50;1.00;;;;;22.52;36.63;100348.66;5025930;28;48624;-75
2023/03/30 04:18:59;;;;;;;;;1.50;1.00;;;;;22.51;36.57;100338.97;5042434;28;64373;-75
2023/03/30 04:21:28;;;;;;;;;1.50;1.50;;;;;22.51;36.35;100334.47;5030073;28;62916;-75
2023/03/30 04:23:54;;;;;;;;;1.50;1.00;;;;;22.51;36.35;100338.97;5022120;28;47385;-75
2023/03/30 04:26:19;;;;;;;;;1.50;1.00;;;;;22.51;36.84;100341.63;5052340;28;45296;-75
2023/03/30 04:28:45;;;;;;;;;1.00;1.00;;;;;22.51;36.64;100336.31;5049644;28;57822;-74
2023/03/30 04:31:11;;;;;;;;;1.00;1.00;;;;;22.49;36.76;100333.75;5043635;28;45236;-75
2023/03/30 04:33:44;;;;;;;;;1.00;1.00;;;;;22.48;36.82;100332.06;5050088;28;45447;-74
2023/03/30 04:36:12;;;;;;;;;2.25;1.00;;;;;22.48;36.78;100340.06;5034703;28;45557;-75
2023/03/30 04:38:37;;;;;;;;;1.75;1.25;;;;;22.49;36.98;100344.44;5036048;28;45402;-75
2023/03/30 04:41:04;;;;;;;;;2.00;1.25;;;;;22.47;36.93;100348.19;5047250;28;45443;-75
2023/03/30 04:43:30;;;;;;;;;2.00;1.00;;;;;22.48;36.85;100344.56;5041683;28;45404;-75
2023/03/30 04:45:55;;;;;;;;;1.25;1.00;;;;;22.49;36.92;100344.44;5036155;28;45759;-74
2023/03/30 04:48:22;;;;;;;;;1.00;1.00;;;;;22.44;36.47;100335.13;5025721;28;45560;-74
2023/03/30 04:50:48;;;;;;;;;1.00;1.00;;;;;22.46;36.55;100335.84;5025649;28;45552;-74
2023/03/30 04:53:15;;;;;;;;;2.25;0.50;;;;;22.48;37.07;100349.88;5019698;28;47178;-74
2023/03/30 04:55:41;;;;;;;;;2.00;0.25;;;;;22.46;36.67;100346.50;5028411;28;45503;-74
2023/03/30 04:58:10;;;;;;;;;1.00;1.00;;;;;22.46;36.83;100347.34;5034268;28;45251;-75
2023/03/30 05:00:35;;;;;;;;;0.75;0.50;;;;;22.46;36.93;100352.69;5029309;28;45406;-74
2023/03/30 05:03:01;;;;;;;;;1.00;0.75;;;;;22.45;36.86;100358.13;5025820;28;45435;-74
2023/03/30 05:05:26;;;;;;;;;1.00;1.00;;;;;22.47;36.41;100364.19;5032688;28;71553;-74
2023/03/30 05:07:52;;;;;;;;;1.75;1.00;;;;;22.47;37.12;100365.03;5056971;28;45301;-74
2023/03/30 05:10:18;;;;;;;;;0.00;0.00;;;;;22.45;36.53;100369.66;5036121;28;45531;-74
2023/03/30 05:12:43;;;;;;;;;1.00;1.00;;;;;22.45;36.57;100369.66;5039476;28;45431;-74
2023/03/30 05:15:09;;;;;;;;;3.00;0.00;;;;;22.45;36.71;100369.66;5037890;28;68601;-74
2023/03/30 05:17:34;;;;;;;;;1.00;1.00;;;;;22.44;36.65;100367.97;5053624;28;45543;-74
2023/03/30 05:20:00;;;;;;;;;1.75;1.50;;;;;22.43;36.93;100371.59;5041601;28;45400;-74
2023/03/30 05:22:25;;;;;;;;;1.00;1.00;;;;;22.45;36.70;100382.13;5032466;28;48060;-75
2023/03/30 05:24:51;;;;;;;;;2.00;0.25;;;;;22.44;37.00;100386.63;5048591;28;45491;-74
2023/03/30 05:27:17;;;;;;;;;1.00;1.00;;;;;22.45;37.08;100398.13;5048473;28;45981;-74
2023/03/30 05:29:42;;;;;;;;;0.50;0.50;;;;;22.42;37.22;100401.91;5036546;28;45289;-75
2023/03/30 05:32:08;;;;;;;;;1.00;1.00;;;;;22.41;37.09;100397.53;5009647;28;70851;-75
2023/03/30 05:34:33;;;;;;;;;0.75;0.00;;;;;22.42;37.10;100403.75;5055744;28;45461;-79
2023/03/30 05:36:59;;;;;;;;;1.00;1.00;;;;;22.43;37.10;100406.25;5021768;28;47365;-76
2023/03/30 05:39:24;;;;;;;;;4.00;2.00;;;;;22.44;36.87;100412.44;5031759;28;61220;-75
2023/03/30 05:41:50;;;;;;;;;2.00;0.00;;;;;22.41;37.39;100410.88;5050420;28;46529;-79
2023/03/30 05:44:15;;;;;;;;;3.25;1.00;;;;;22.40;37.23;100414.53;5053544;28;45579;-78
2023/03/30 05:46:40;;;;;;;;;2.75;1.00;;;;;22.40;36.92;100417.19;5028804;28;45326;-79
2023/03/30 05:49:06;;;;;;;;;1.50;1.00;;;;;22.33;37.01;100395.50;5057135;28;63986;-71
2023/03/30 05:51:31;;;;;;;;;2.00;1.50;;;;;22.35;37.20;100409.56;5040390;28;46794;-75
2023/03/30 05:53:57;;;;;;;;;4.00;4.00;;;;;22.40;36.89;100430.53;5053027;28;59442;-76
2023/03/30 05:56:23;;;;;;;;;8.25;5.75;;;;;22.36;37.42;100421.06;5052037;28;45455;-71
2023/03/30 05:58:49;;;;;;;;;6.50;4.00;;;;;22.36;37.23;100423.72;5035654;28;45546;-71
2023/03/30 06:01:15;;;;;;;;;4.00;2.00;;;;;22.34;37.03;100431.84;5041916;28;45471;-73
2023/03/30 06:03:40;;;;;;;;;2.00;2.00;;;;;22.36;37.03;100429.06;5040450;28;45434;-72
2023/03/30 06:06:06;;;;;;;;;2.00;2.00;;;;;22.34;36.83;100433.66;5053391;28;45290;-72
2023/03/30 06:08:32;;;;;;;;;1.00;1.00;;;;;22.35;37.28;100438.88;5038807;28;45433;-73
2023/03/30 06:10:57;;;;;;;;;2.25;2.00;;;;;22.36;36.88;100437.06;5051688;28;46062;-72
2023/03/30 06:13:24;;;;;;;;;2.25;2.00;;;;;22.35;36.77;100444.22;5046780;28;45287;-72
2023/03/30 06:15:49;;;;;;;;;3.25;1.50;;;;;22.35;37.32;100446.88;5056159;28;45478;-74
2023/03/30 06:18:15;;;;;;;;;3.00;1.50;;;;;22.34;37.06;100445.19;5025803;28;45496;-72
2023/03/30 06:20:40;;;;;;;;;2.00;1.25;;;;;22.34;37.16;100449.66;5057009;28;45567;-73
2023/03/30 06:23:05;;;;;;;;;4.25;1.00;;;;;22.32;37.22;100455.13;5038604;28;45548;-72
2023/03/30 06:25:31;;;;;;;;;1.75;1.00;;;;;22.33;36.88;100464.81;5042477;28;60128;-73
2023/03/30 06:27:56;;;;;;;;;3.00;2.00;;;;;22.32;37.07;100468.44;5059465;28;71750;-72
2023/03/30 06:30:22;;;;;;;;;1.25;1.25;;;;;22.31;37.20;100461.44;5058632;28;61992;-73
2023/03/30 06:32:48;;;;;;;;;2.00;2.00;;;;;22.29;36.92;100463.38;5026217;28;45294;-73
2023/03/30 06:35:14;;;;;;;;;2.25;1.25;;;;;22.30;37.15;100464.22;5039936;28;45356;-74
2023/03/30 06:37:40;;;;;;;;;2.50;0.50;;;;;22.29;37.02;100473.19;5031181;28;45499;-74
2023/03/30 06:40:12;;;;;;;;;1.00;0.25;;;;;22.28;37.71;100480.34;5046237;28;46558;-74
2023/03/30 06:42:40;;;;;;;;;3.75;1.00;;;;;22.30;37.59;100482.88;5031850;28;45878;-74
2023/03/30 06:45:07;;;;;;;;;3.50;0.75;;;;;22.32;37.73;100487.13;5044503;28;45262;-73
2023/03/30 06:47:32;;;;;;;;;1.50;1.50;;;;;22.32;37.42;100488.94;5027362;28;45613;-74
2023/03/30 06:49:58;;;;;;;;;1.00;1.00;;;;;22.33;37.68;100486.16;5027673;28;47167;-74
2023/03/30 06:52:23;;;;;;;;;4.00;2.00;;;;;22.39;37.95;100497.28;5025565;28;45430;-74
2023/03/30 06:54:49;;;;;;;;;3.00;1.00;;;;;22.39;37.93;100500.81;5041449;28;45871;-74
2023/03/30 06:57:14;;;;;;;;;1.50;1.00;;;;;22.39;37.47;100497.28;5014539;28;45605;-75
2023/03/30 06:59:40;;;;;;;;;1.00;1.00;;;;;22.40;37.99;100504.31;5031419;28;56695;-74
2023/03/30 07:02:05;;;;;;;;;1.00;1.00;;;;;22.43;37.71;100514.72;5035605;28;45329;-74
2023/03/30 07:04:30;;;;;;;;;3.50;1.00;;;;;22.41;37.46;100508.69;5043602;28;69346;-73
2023/03/30 07:06:56;;;;;;;;;4.00;2.00;;;;;22.44;37.75;100514.63;5029460;28;48023;-74
2023/03/30 07:09:25;;;;;;;;;1.75;1.00;;;;;22.46;37.61;100504.66;5032634;28;45911;-71
2023/03/30 07:11:51;;;;;;;;;3.75;1.50;;;;;22.48;37.59;100515.22;5045386;28;45747;-76
2023/03/30 07:14:16;;;;;;;;;1.25;1.00;;;;;22.49;37.95;100512.44;5029422;28;45542;-81
2023/03/30 07:16:41;;;;;;;;;5.75;1.75;;;;;22.51;37.56;100515.81;5054465;28;69562;-76
2023/03/30 07:19:07;;;;;;;;;2.25;1.00;;;;;22.54;37.91;100525.38;5047087;28;48947;-80
2023/03/30 07:21:33;;;;;;;;;3.50;1.00;;;;;22.55;37.99;100511.06;5041466;28;45598;-82
2023/03/30 07:24:01;;;;;;;;;3.75;1.00;;;;;22.57;37.86;100527.81;5029868;28;45468;-79
2023/03/30 07:26:29;;;;;;;;;3.00;2.00;;;;;22.61;38.15;100521.25;5051333;28;45395;-76
2023/03/30 07:28:55;;;;;;;;;1.75;1.00;;;;;22.63;37.53;100513.97;5029241;28;45595;-75
2023/03/30 07:31:22;;;;;;;;;2.00;1.00;;;;;22.66;37.72;100518.22;5028625;28;45435;-72
2023/03/30 07:33:47;;;;;;;;;1.00;1.00;;;;;22.71;37.52;100521.34;5044008;28;45412;-75
2023/03/30 07:36:13;;;;;;;;;1.00;1.00;;;;;22.75;37.59;100521.00;5020075;28;45686;-74
2023/03/30 07:38:38;;;;;;;;;1.00;1.00;;;;;22.83;37.52;100530.19;5030018;28;60785;-75
2023/03/30 07:41:08;;;;;;;;;0.25;0.25;;;;;22.87;37.76;100529.78;5033718;28;45211;-74
2023/03/30 07:43:34;;;;;;;;;1.00;1.00;;;;;22.93;37.49;100526.63;5047324;28;45311;-78
2023/03/30 07:46:00;;;;;;;;;0.00;0.00;;;;;22.99;38.12;100529.75;5033167;28;45507;-81
2023/03/30 07:48:26;;;;;;;;;1.00;1.00;;;;;23.02;37.83;100527.69;5033613;28;46095;-80
2023/03/30 07:51:03;;;;;;;;;1.25;0.50;;;;;23.11;37.44;100524.28;5055382;28;46069;-88
2023/03/30 07:53:29;;;;;;;;;3.25;1.00;;;;;23.11;37.97;100520.78;5032893;28;45413;-77
2023/03/30 07:55:54;;;;;;;;;1.75;1.00;;;;;23.20;37.69;100533.34;5053628;28;45433;-86
2023/03/30 07:58:19;;;;;;;;;0.25;0.25;;;;;23.26;37.34;100530.16;5029554;28;45955;-74
2023/03/30 08:00:46;;;;;;;;;1.00;1.00;;;;;23.33;37.49;100538.50;5035648;28;49976;-80
2023/03/30 08:03:12;;;;;;;;;3.50;1.00;;;;;23.40;37.51;100557.53;5042202;28;45414;-74
2023/03/30 08:05:37;;;;;;;;;0.25;0.25;;;;;23.45;37.13;100552.66;5031001;28;45527;-73
2023/03/30 08:08:02;;;;;;;;;0.00;0.00;;;;;23.47;37.48;100550.69;5039585;28;45995;-75
2023/03/30 08:10:28;;;;;;;;;2.00;1.00;;;;;23.46;37.35;100544.50;5033234;28;45434;-76
2023/03/30 08:12:54;;;;;;;;;0.00;0.00;;;;;23.54;37.64;100546.53;5032300;28;45440;-71
2023/03/30 08:15:19;;;;;;;;;0.00;0.00;;;;;23.57;37.28;100553.41;5032800;28;46313;-69
2023/03/30 08:17:44;;;;;;;;;0.25;0.00;;;;;23.58;37.48;100555.97;5015861;28;46971;-77
2023/03/30 08:20:10;;;;;;;;;0.00;0.00;;;;;23.64;37.26;100560.81;5042724;28;45279;-72
2023/03/30 08:22:35;;;;;;;;;0.25;0.25;;;;;23.67;37.12;100562.34;5033010;28;45526;-78
2023/03/30 08:25:01;;;;;;;;;4.75;0.50;;;;;23.74;37.43;100568.88;5048423;28;71139;-72
2023/03/30 08:27:27;;;;;;;;;0.25;0.00;;;;;23.73;37.23;100564.50;5029826;28;45369;-75
2023/03/30 08:29:53;;;;;;;;;0.75;0.00;;;;;23.78;36.81;100570.31;5044194;28;45323;-76
2023/03/30 08:32:18;;;;;;;;;0.25;0.25;;;;;23.83;37.22;100580.63;5025623;28;45514;-79
2023/03/30 08:34:44;;;;;;;;;2.00;1.75;;;;;23.80;37.16;100573.75;5036696;28;45482;-77
2023/03/30 08:37:09;;;;;;;;;2.50;0.00;;;;;23.90;36.76;100587.13;5022454;28;59272;-72
2023/03/30 08:39:36;;;;;;;;;0.00;0.00;;;;;23.94;37.01;100599.28;5021245;28;45470;-71
2023/03/30 08:42:11;;;;;;;;;4.00;0.00;;;;;23.98;36.77;100600.72;5050141;28;45367;-75
2023/03/30 08:44:39;;;;;;;;;1.00;0.75;;;;;24.02;36.76;100598.63;5048756;28;45493;-72
2023/03/30 08:47:10;;;;;;;;;0.00;0.00;;;;;24.04;36.88;100594.81;5042325;28;46025;-71
2023/03/30 08:49:41;;;;;;;;;0.25;0.25;;;;;24.08;36.81;100603.41;5026979;28;45867;-71
2023/03/30 08:52:17;;;;;;;;;1.00;0.25;;;;;24.11;36.65;100610.34;5032479;28;45235;-71
2023/03/30 08:54:43;;;;;;;;;0.00;0.00;;;;;24.10;36.62;100606.84;5054477;28;45412;-71
2023/03/30 08:57:28;;;;;;;;;2.75;0.25;;;;;24.10;36.70;100606.84;5039380;28;72120;-73
2023/03/30 09:00:06;;;;;;;;;1.50;0.25;;;;;24.10;36.65;100609.50;5030163;28;45374;-71
2023/03/30 09:02:36;;;;;;;;;1.00;0.25;;;;;24.17;36.54;100613.34;5059683;28;45340;-71
2023/03/30 09:05:21;;;;;;;;;0.75;0.00;;;;;24.19;36.39;100621.25;5028369;28;45346;-71
2023/03/30 09:08:01;;;;;;;;;0.00;0.00;;;;;24.21;36.34;100617.44;5018139;28;47011;-72
2023/03/30 09:10:29;;;;;;;;;0.00;0.00;;;;;24.19;36.10;100614.06;5051223;28;45355;-72
2023/03/30 09:12:57;;;;;;;;;1.00;0.00;;;;;24.18;36.43;100615.03;5048793;28;45547;-74
2023/03/30 09:15:58;;;;;;;;;0.25;0.25;;;;;24.21;36.51;100616.59;5030411;28;45785;-76
2023/03/30 09:18:31;;;;;;;;;0.25;0.25;;;;;24.24;36.66;100621.66;5047118;28;46384;-73
2023/03/30 09:21:02;;;;;;;;;0.25;0.25;;;;;24.24;36.04;100621.66;5044702;28;45393;-73
2023/03/30 09:23:29;;;;;;;;;0.75;0.00;;;;;24.32;36.31;100626.38;5040791;28;45262;-71
2023/03/30 09:26:19;;;;;;;;;2.75;0.00;;;;;24.32;36.03;100629.88;5038214;28;45377;-76
2023/03/30 09:28:54;;;;;;;;;0.25;0.25;;;;;24.33;35.99;100628.03;5054791;28;47315;-76
2023/03/30 09:31:30;;;;;;;;;0.00;0.00;;;;;24.29;35.86;100614.09;5040281;28;45818;-73
2023/03/30 09:34:02;;;;;;;;;1.00;0.00;;;;;24.32;35.81;100626.38;5033706;28;45461;-80
2023/03/30 09:36:56;;;;;;;;;0.25;0.25;;;;;24.33;35.91;100628.91;5030995;28;45681;-73
2023/03/30 09:39:25;;;;;;;;;0.75;0.25;;;;;24.34;35.66;100637.78;5052484;28;45530;-75
2023/03/30 09:42:26;;;;;;;;;1.25;0.00;;;;;24.30;35.77;100626.50;5015200;28;45375;-77
2023/03/30 09:45:04;;;;;;;;;0.25;0.25;;;;;24.30;35.85;100636.34;4977944;28;45694;-79
2023/03/30 09:47:37;;;;;;;;;1.50;0.25;;;;;24.28;35.75;100633.81;5032217;28;45293;-76
2023/03/30 09:50:08;;;;;;;;;1.00;0.25;;;;;24.22;35.72;100629.84;5030272;28;46034;-78
2023/03/30 09:52:37;;;;;;;;;0.00;0.00;;;;;24.24;35.76;100638.56;5026527;28;45545;-71
2023/03/30 09:55:24;;;;;;;;;2.00;1.00;;;;;24.21;36.04;100621.94;5032321;28;45349;-72
2023/03/30 09:57:52;;;;;;;;;2.25;0.25;;;;;24.18;35.91;100631.06;5033823;28;45752;-71
2023/03/30 10:00:30;;;;;;;;;2.25;0.25;;;;;24.20;35.93;100638.97;5042929;28;45263;-81
2023/03/30 10:03:01;;;;;;;;;0.00;0.00;;;;;24.20;35.88;100641.63;5032584;28;45592;-74
2023/03/30 10:05:28;;;;;;;;;2.25;1.00;;;;;24.16;35.78;100641.06;5038416;28;45457;-72
2023/03/30 10:08:18;;;;;;;;;0.25;0.25;;;;;24.15;35.87;100636.69;5037109;28;45530;-74
2023/03/30 10:10:44;;;;;;;;;1.25;1.00;;;;;24.16;35.94;100649.06;5037335;28;46422;-77
2023/03/30 10:13:09;;;;;;;;;0.50;0.25;;;;;24.15;35.85;100646.53;5046315;28;45442;-81
2023/03/30 10:15:37;;;;;;;;;0.00;0.00;;;;;24.14;36.05;100645.69;5040315;28;45472;-77
2023/03/30 10:18:19;;;;;;;;;0.00;0.00;;;;;24.12;35.86;100639.63;5039417;28;45314;-75
2023/03/30 10:21:16;;;;;;;;;3.25;0.25;;;;;24.10;35.94;100641.59;5030942;28;46781;-74
2023/03/30 10:23:58;;;;;;;;;0.75;0.00;;;;;24.13;35.99;100648.50;5055323;28;45859;-74
2023/03/30 10:26:27;;;;;;;;;0.25;0.00;;;;;24.13;35.94;100635.13;5036530;28;45360;-74
2023/03/30 10:28:55;;;;;;;;;0.50;0.25;;;;;24.13;35.86;100646.66;5040620;28;45447;-71
2023/03/30 10:31:21;;;;;;;;;1.00;0.25;;;;;24.13;36.18;100637.78;5035650;28;45445;-78
2023/03/30 10:33:47;;;;;;;;;3.00;0.25;;;;;24.15;35.95;100646.53;5044830;28;45289;-75
2023/03/30 10:36:14;;;;;;;;;0.25;0.25;;;;;24.18;36.16;100641.75;5027911;28;45618;-77
2023/03/30 10:38:40;;;;;;;;;0.25;0.25;;;;;24.17;35.94;100639.22;5027868;28;45381;-75
2023/03/30 10:41:08;;;;;;;;;0.00;0.00;;;;;24.18;35.48;100640.91;5057358;28;45522;-75
2023/03/30 10:43:35;;;;;;;;;0.75;0.25;;;;;24.20;36.08;100637.13;5037606;28;45108;-74
2023/03/30 10:46:13;;;;;;;;;1.25;0.25;;;;;24.21;35.77;100628.13;5048583;28;45505;-75
2023/03/30 10:48:51;;;;;;;;;1.00;0.25;;;;;24.23;35.78;100620.81;5037714;28;45432;-71
2023/03/30 10:51:51;;;;;;;;;0.00;0.00;;;;;24.25;35.67;100634.91;5054066;28;45344;-77
2023/03/30 10:54:20;;;;;;;;;3.50;0.75;;;;;24.26;35.77;100622.41;5042143;28;45531;-78
2023/03/30 10:56:51;;;;;;;;;0.25;0.25;;;;;24.28;35.90;100630.28;5036981;28;45507;-79
2023/03/30 11:00:14;;;;;;;;;0.75;0.25;;;;;24.28;35.76;100623.09;5032799;28;45621;-79
2023/03/30 11:03:07;;;;;;;;;1.00;0.25;;;;;24.29;35.88;100615.91;4986619;28;45557;-70
2023/03/30 11:05:39;;;;;;;;;1.00;1.00;;;;;24.26;35.64;100611.69;4985077;28;45754;-70
2023/03/30 11:08:10;;;;;;;;;0.25;0.25;;;;;24.30;35.83;100622.97;5028834;28;45579;-75
2023/03/30 11:10:39;;;;;;;;;0.00;0.00;;;;;24.27;35.73;100605.34;5046256;28;45471;-70
2023/03/30 11:13:18;;;;;;;;;3.00;0.25;;;;;24.30;35.58;100618.47;5038545;28;46142;-67
2023/03/30 11:15:49;;;;;;;;;0.00;0.00;;;;;24.30;35.77;100615.78;5037156;28;45835;-68
2023/03/30 11:18:37;;;;;;;;;3.75;1.00;;;;;24.31;35.67;100617.50;5036507;28;45471;-69
2023/03/30 11:21:14;;;;;;;;;0.25;0.00;;;;;24.32;35.69;100607.63;5055094;28;46250;-68
2023/03/30 11:23:54;;;;;;;;;1.00;0.25;;;;;24.31;35.45;100611.28;5022065;28;47007;-67
2023/03/30 11:26:56;;;;;;;;;2.00;0.25;;;;;24.30;35.57;100614.94;5023628;28;45445;-68
2023/03/30 11:29:42;;;;;;;;;2.75;0.25;;;;;24.31;35.69;100614.81;5034885;28;45799;-68
2023/03/30 11:32:45;;;;;;;;;1.50;0.25;;;;;24.32;35.67;100619.19;5035555;28;45404;-68
2023/03/30 11:35:32;;;;;;;;;2.00;0.75;;;;;24.31;35.70;100617.50;5047721;28;46723;-69
2023/03/30 11:38:04;;;;;;;;;4.00;1.75;;;;;24.30;35.40;100607.78;5033341;28;45485;-68
2023/03/30 11:40:43;;;;;;;;;3.00;0.25;;;;;24.31;35.48;100601.44;5030409;28;45195;-68